createdAt,value
2018-11-12T00:00:32.265Z,17.9
2018-11-12T00:04:00.235Z,16.5
2018-11-12T00:07:29.226Z,17.799999
2018-11-12T00:10:57.213Z,17.9
2018-11-12T00:14:25.190Z,17.299999
2018-11-12T00:17:53.184Z,16.1
2018-11-12T00:21:21.165Z,15.5
2018-11-12T00:24:49.137Z,17.200001
2018-11-12T00:28:17.125Z,15.5
2018-11-12T00:31:45.108Z,15.6
2018-11-12T00:35:13.105Z,16.9
2018-11-12T00:38:41.080Z,14.9
2018-11-12T00:42:09.068Z,15.3
2018-11-12T00:45:37.056Z,14.9
2018-11-12T00:49:11.652Z,16.299999
2018-11-12T00:52:39.623Z,16.200001
2018-11-12T00:56:07.597Z,14
2018-11-12T00:59:35.545Z,14.4
2018-11-12T01:03:03.521Z,14.5
2018-11-12T01:06:31.492Z,14
2018-11-12T01:10:00.443Z,13
2018-11-12T01:13:28.413Z,12.6
2018-11-12T01:16:56.384Z,11.7
2018-11-12T01:20:24.353Z,11.8
2018-11-12T01:23:52.327Z,9.1
2018-11-12T01:27:20.273Z,11
2018-11-12T01:30:48.240Z,11.2
2018-11-12T01:34:16.222Z,10.1
2018-11-12T01:37:45.176Z,10.1
2018-11-12T01:41:13.132Z,9.2
2018-11-12T01:44:41.115Z,12.9
2018-11-12T01:48:09.065Z,7.8
2018-11-12T01:51:37.039Z,9.9
2018-11-12T01:55:05.006Z,9.3
2018-11-12T01:58:32.959Z,9.8
2018-11-12T02:02:00.930Z,9.5
2018-11-12T02:05:28.904Z,8.2
2018-11-12T02:08:57.881Z,10.7
2018-11-12T02:12:25.814Z,10.4
2018-11-12T02:15:53.805Z,8.7
2018-11-12T02:19:21.752Z,9.9
2018-11-12T02:22:49.807Z,10.1
2018-11-12T02:26:17.684Z,12.1
2018-11-12T02:29:46.020Z,9.9
2018-11-12T02:33:13.993Z,9.5
2018-11-12T02:36:41.939Z,11
2018-11-12T02:40:10.894Z,10.3
2018-11-12T02:43:38.848Z,9.9
2018-11-12T02:47:06.817Z,10.3
2018-11-12T02:50:34.786Z,9.7
2018-11-12T02:54:02.741Z,9.8
2018-11-12T02:57:31.795Z,10
2018-11-12T03:00:59.659Z,9.4
2018-11-12T03:04:27.627Z,10.4
2018-11-12T03:07:55.590Z,10.7
2018-11-12T03:11:23.553Z,9.8
2018-11-12T03:14:51.621Z,10.2
2018-11-12T03:18:19.575Z,10.2
2018-11-12T03:21:47.545Z,9.5
2018-11-12T03:25:16.700Z,9.8
2018-11-12T03:28:44.644Z,11.3
2018-11-12T03:32:12.613Z,9.7
2018-11-12T03:35:40.590Z,11.5
2018-11-12T03:39:08.540Z,10.6
2018-11-12T03:42:36.506Z,11.2
2018-11-12T03:46:04.482Z,10.8
2018-11-12T03:49:32.431Z,10.1
2018-11-12T03:53:07.421Z,12.7
2018-11-12T03:56:35.386Z,9.9
2018-11-12T04:00:04.344Z,10.2
2018-11-12T04:03:32.293Z,9.9
2018-11-12T04:07:00.260Z,11.4
2018-11-12T04:10:28.245Z,11.4
2018-11-12T04:13:56.196Z,10.4
2018-11-12T04:17:24.167Z,9.9
2018-11-12T04:20:52.138Z,11.6
2018-11-12T04:24:20.085Z,9.5
2018-11-12T04:27:48.053Z,11.3
2018-11-12T04:31:16.026Z,10.2
2018-11-12T04:34:43.977Z,12.4
2018-11-12T04:38:11.947Z,9.5
2018-11-12T04:41:39.917Z,9
2018-11-12T04:45:07.876Z,9
2018-11-12T04:48:35.850Z,11.3
2018-11-12T04:52:04.861Z,9.8
2018-11-12T04:55:33.802Z,10.4
2018-11-12T04:59:01.748Z,12.2
2018-11-12T05:02:30.704Z,10.7
2018-11-12T05:05:58.671Z,10.4
2018-11-12T05:09:26.622Z,10
2018-11-12T05:12:55.579Z,11
2018-11-12T05:16:23.591Z,9.9
2018-11-12T05:19:51.517Z,10.1
2018-11-12T05:23:20.466Z,12.2
2018-11-12T05:26:48.434Z,12.2
2018-11-12T05:30:16.421Z,10.8
2018-11-12T05:33:45.359Z,10.3
2018-11-12T05:37:13.334Z,10.1
2018-11-12T05:40:41.301Z,11.1
2018-11-12T05:44:09.253Z,10.5
2018-11-12T05:47:37.222Z,12.8
2018-11-12T05:51:05.189Z,11.5
2018-11-12T05:54:33.140Z,11.5
2018-11-12T05:58:01.116Z,13.6
2018-11-12T06:01:29.087Z,13.5
2018-11-12T06:04:57.117Z,13.1
2018-11-12T06:08:24.997Z,13.2
2018-11-12T06:11:52.966Z,13.1
2018-11-12T06:15:20.929Z,12.8
2018-11-12T06:18:49.869Z,14.3
2018-11-12T06:22:17.839Z,13.6
2018-11-12T06:25:45.803Z,16.700001
2018-11-12T06:29:13.766Z,14.9
2018-11-12T06:32:42.738Z,14.1
2018-11-12T06:36:10.705Z,12.2
2018-11-12T06:39:38.672Z,14.7
2018-11-12T06:43:06.691Z,14.8
2018-11-12T06:46:34.594Z,15.3
2018-11-12T06:50:02.560Z,15.8
2018-11-12T06:53:30.553Z,15
2018-11-12T06:56:58.478Z,16.6
2018-11-12T07:00:26.445Z,14.9
2018-11-12T07:03:54.598Z,15.1
2018-11-12T07:07:22.559Z,15.7
2018-11-12T07:10:50.534Z,15.5
2018-11-12T07:14:18.620Z,15.8
2018-11-12T07:17:46.569Z,14.8
2018-11-12T07:21:15.525Z,15.8
2018-11-12T07:24:43.509Z,15.4
2018-11-12T07:28:11.466Z,15.9
2018-11-12T07:31:39.440Z,15.7
2018-11-12T07:35:07.404Z,17.200001
2018-11-12T07:38:35.361Z,16.5
2018-11-12T07:42:03.346Z,16.799999
2018-11-12T07:45:32.296Z,17.299999
2018-11-12T07:49:00.253Z,16.9
2018-11-12T07:52:28.224Z,16.1
2018-11-12T07:55:56.197Z,17.1
2018-11-12T07:59:24.154Z,18.4
2018-11-12T08:02:52.180Z,17.299999
2018-11-12T08:06:20.280Z,16.799999
2018-11-12T08:09:48.347Z,16.5
2018-11-12T08:13:16.217Z,16.700001
2018-11-12T08:16:44.189Z,15.4
2018-11-12T08:20:12.164Z,15.7
2018-11-12T08:23:41.114Z,17.700001
2018-11-12T08:27:09.081Z,15.4
2018-11-12T08:30:37.057Z,17.1
2018-11-12T08:34:05.018Z,14.3
2018-11-12T08:37:32.993Z,15.9
2018-11-12T08:41:01.055Z,14.4
2018-11-12T08:44:28.913Z,14.9
2018-11-12T08:47:56.880Z,12.8
2018-11-12T08:51:24.852Z,14.8
2018-11-12T08:54:52.863Z,14.6
2018-11-12T08:58:21.773Z,15.1
2018-11-12T09:01:49.736Z,13.3
2018-11-12T09:05:17.688Z,14.5
2018-11-12T09:08:45.655Z,15.1
2018-11-12T09:12:14.621Z,14.8
2018-11-12T09:15:42.618Z,16.4
2018-11-12T09:19:10.548Z,16.299999
2018-11-12T09:22:38.517Z,15.9
2018-11-12T09:26:06.484Z,15.6
2018-11-12T09:29:35.505Z,15.1
2018-11-12T09:33:03.397Z,17
2018-11-12T09:36:31.395Z,14.6
2018-11-12T09:39:59.329Z,15.5
2018-11-12T09:43:27.302Z,15.3
2018-11-12T09:46:55.279Z,16.9
2018-11-12T09:50:23.247Z,16.6
2018-11-12T09:53:51.417Z,16.1
2018-11-12T09:57:19.186Z,16.5
2018-11-12T10:00:47.346Z,17.4
2018-11-12T10:04:16.515Z,17.700001
2018-11-12T10:07:47.567Z,15.2
2018-11-12T10:11:19.283Z,17.6
2018-11-12T10:14:48.129Z,19.5
2018-11-12T10:18:14.885Z,19.6
2018-11-12T10:21:42.865Z,17.299999
2018-11-12T10:25:10.809Z,18.5
2018-11-12T10:28:38.778Z,19.299999
2018-11-12T10:32:07.741Z,19.1
2018-11-12T10:35:35.700Z,22.299999
2018-11-12T10:39:03.661Z,20.200001
2018-11-12T10:42:31.646Z,20.4
2018-11-12T10:45:59.609Z,20.200001
2018-11-12T10:49:27.556Z,21.6
2018-11-12T10:52:55.534Z,22
2018-11-12T10:56:23.497Z,21.5
2018-11-12T10:59:51.526Z,23.200001
2018-11-12T11:03:19.416Z,20.299999
2018-11-12T11:06:47.387Z,21.200001
2018-11-12T11:10:15.346Z,21.9
2018-11-12T11:13:43.329Z,23.700001
2018-11-12T11:17:12.276Z,25.299999
2018-11-12T11:20:40.252Z,22.9
2018-11-12T11:24:08.205Z,24.6
2018-11-12T11:27:37.165Z,24
2018-11-12T11:31:05.139Z,24.5
2018-11-12T11:34:34.815Z,25.1
2018-11-12T11:38:02.787Z,25.5
2018-11-12T11:41:30.762Z,25.200001
2018-11-12T11:44:58.709Z,25.1
2018-11-12T11:48:26.674Z,28.299999
2018-11-12T11:51:55.638Z,28.799999
2018-11-12T11:55:23.596Z,26.799999
2018-11-12T11:58:51.565Z,30.5
2018-11-12T12:02:19.611Z,29.4
2018-11-12T12:05:47.496Z,32.400002
2018-11-12T12:09:15.558Z,34
2018-11-12T12:12:43.434Z,30.4
2018-11-12T12:16:12.396Z,27.700001
2018-11-12T12:19:40.358Z,28.4
2018-11-12T12:23:09.318Z,30.9
2018-11-12T12:26:37.282Z,30.4
2018-11-12T12:30:05.230Z,29.799999
2018-11-12T12:33:33.235Z,29.799999
2018-11-12T12:37:01.208Z,30.5
2018-11-12T12:40:29.164Z,30.5
2018-11-12T12:43:57.121Z,33.299999
2018-11-12T12:47:25.097Z,33.400002
2018-11-12T12:50:53.074Z,34.5
2018-11-12T12:54:22.214Z,30.1
2018-11-12T12:57:52.841Z,31.6
2018-11-12T13:01:21.892Z,28.9
2018-11-12T13:04:53.685Z,29.700001
2018-11-12T13:08:19.884Z,25.799999
2018-11-12T13:11:48.718Z,32.799999
2018-11-12T13:15:17.685Z,37.299999
2018-11-12T13:18:51.294Z,34.5
2018-11-12T13:22:22.231Z,36.700001
2018-11-12T13:25:51.438Z,27.200001
2018-11-12T13:29:19.398Z,28.799999
2018-11-12T13:32:47.363Z,28
2018-11-12T13:36:15.346Z,29.1
2018-11-12T13:39:43.977Z,28.6
2018-11-12T13:43:13.828Z,26.299999
2018-11-12T13:46:41.917Z,24.9
2018-11-12T13:50:10.814Z,25.200001
2018-11-12T13:53:40.682Z,25
2018-11-12T13:57:08.665Z,27.4
2018-11-12T14:00:37.901Z,26.6
2018-11-12T14:04:05.850Z,28.9
2018-11-12T14:07:34.677Z,28.9
2018-11-12T14:11:02.758Z,28.9
2018-11-12T14:14:32.417Z,30.5
2018-11-12T14:18:08.251Z,31.6
2018-11-12T14:21:41.162Z,30.4
2018-11-12T14:25:11.826Z,29.700001
2018-11-12T14:28:39.972Z,31
2018-11-12T14:32:07.708Z,33.599998
2018-11-12T14:35:43.000Z,33.5
2018-11-12T14:39:14.856Z,32.700001
2018-11-12T14:42:46.298Z,37.400002
2018-11-12T14:46:16.551Z,34.299999
2018-11-12T14:49:46.272Z,38.299999
2018-11-12T14:53:14.432Z,33.900002
2018-11-12T14:56:42.544Z,36.700001
2018-11-12T15:00:10.907Z,38.799999
2018-11-12T15:03:39.475Z,37.099998
2018-11-12T15:07:16.822Z,37.599998
2018-11-12T15:10:47.592Z,39.5
2018-11-12T15:14:22.896Z,40.099998
2018-11-12T15:17:52.998Z,38.200001
2018-11-12T15:21:28.392Z,40.5
2018-11-12T15:24:57.562Z,41
2018-11-12T15:28:33.711Z,49.200001
2018-11-12T15:32:01.744Z,41.200001
2018-11-12T15:35:31.103Z,36.799999
2018-11-12T15:38:59.091Z,36.200001
2018-11-12T15:42:27.094Z,37.5
2018-11-12T15:45:55.115Z,37.099998
2018-11-12T15:49:24.225Z,35.400002
2018-11-12T15:52:52.192Z,34.700001
2018-11-12T15:56:20.159Z,38.099998
2018-11-12T15:59:48.126Z,36.400002
2018-11-12T16:03:16.074Z,39.099998
2018-11-12T16:06:44.068Z,35.700001
2018-11-12T16:10:12.010Z,35.599998
2018-11-12T16:13:40.956Z,34.400002
2018-11-12T16:17:08.923Z,35.799999
2018-11-12T16:20:36.893Z,35.700001
2018-11-12T16:24:04.851Z,33
2018-11-12T16:27:32.822Z,32.200001
2018-11-12T16:31:00.789Z,30.1
2018-11-12T16:34:28.748Z,31.200001
2018-11-12T16:37:57.708Z,29.799999
2018-11-12T16:41:25.694Z,31.9
2018-11-12T16:44:53.633Z,32.5
2018-11-12T16:48:23.425Z,26.299999
2018-11-12T16:51:52.392Z,27.299999
2018-11-12T16:55:20.363Z,26.700001
2018-11-12T16:58:49.311Z,26.4
2018-11-12T17:02:17.278Z,25.200001
2018-11-12T17:05:45.249Z,22.9
2018-11-12T17:09:13.249Z,22.5
2018-11-12T17:12:41.214Z,25.9
2018-11-12T17:16:09.192Z,25.1
2018-11-12T17:19:37.146Z,26.700001
2018-11-12T17:23:06.254Z,24.5
2018-11-12T17:26:34.187Z,26.5
2018-11-12T17:30:02.145Z,31.200001
2018-11-12T17:33:30.116Z,26.6
2018-11-12T17:36:58.171Z,22.5
2018-11-12T17:40:26.134Z,21.200001
2018-11-12T17:43:54.089Z,20.299999
2018-11-12T17:47:22.056Z,19.200001
2018-11-12T17:50:50.267Z,17.200001
2018-11-12T17:54:18.314Z,18.5
2018-11-12T17:57:46.196Z,17.6
2018-11-12T18:01:14.194Z,16
2018-11-12T18:04:42.134Z,16.1
2018-11-12T18:08:10.207Z,20.200001
2018-11-12T18:11:38.086Z,20
2018-11-12T18:15:06.059Z,16.9
2018-11-12T18:18:34.044Z,16.200001
2018-11-12T18:22:02.012Z,18.1
2018-11-12T18:25:29.981Z,16.700001
2018-11-12T18:28:58.929Z,16.1
2018-11-12T18:32:26.907Z,15.2
2018-11-12T18:35:54.880Z,15.6
2018-11-12T18:39:22.865Z,16.4
2018-11-12T18:42:50.831Z,16
2018-11-12T18:46:18.808Z,16.200001
2018-11-12T18:49:46.761Z,15.9
2018-11-12T18:53:15.875Z,14.1
2018-11-12T18:56:43.844Z,16.799999
2018-11-12T19:00:11.803Z,16.6
2018-11-12T19:03:39.766Z,15.5
2018-11-12T19:07:07.753Z,15.5
2018-11-12T19:10:36.712Z,16.4
2018-11-12T19:14:04.682Z,15
2018-11-12T19:17:33.362Z,17
2018-11-12T19:21:01.337Z,14.8
2018-11-12T19:24:29.291Z,15.2
2018-11-12T19:27:58.254Z,14
2018-11-12T19:31:26.227Z,14.1
2018-11-12T19:34:54.181Z,13.3
2018-11-12T19:38:22.141Z,13.1
2018-11-12T19:41:51.098Z,13.4
2018-11-12T19:45:28.559Z,16.299999
2018-11-12T19:50:09.723Z,16.299999
2018-11-12T19:53:38.800Z,14.3
2018-11-12T19:57:06.788Z,13.4
2018-11-12T20:00:34.868Z,14.5
2018-11-12T20:04:03.569Z,14.5
2018-11-12T20:07:31.581Z,14.5
2018-11-12T20:11:00.453Z,14.8
2018-11-12T20:14:29.435Z,12.6
2018-11-12T20:17:57.476Z,14.6
2018-11-12T20:21:25.588Z,13.2
2018-11-12T20:24:54.388Z,14
2018-11-12T20:28:22.363Z,14.5
2018-11-12T20:31:50.373Z,13.3
2018-11-12T20:35:19.363Z,13.5
2018-11-12T20:38:47.545Z,14.5
2018-11-12T20:42:15.512Z,13.4
2018-11-12T20:45:44.512Z,14
2018-11-12T20:49:12.468Z,12.7
2018-11-12T20:52:40.491Z,11.9
2018-11-12T20:56:08.407Z,12.3
2018-11-12T20:59:36.348Z,11.9
2018-11-12T21:03:04.402Z,12.5
2018-11-12T21:06:32.371Z,13.8
2018-11-12T21:10:01.324Z,11.1
2018-11-12T21:13:29.303Z,10.8
